Terminal Aerodrome Forecast
Issued by NWS

Home | Current Version | Previous Version | Text Only | Print | Product List | Glossary On
Versions: 1 2 3 4 5 6 7 8 9 10 11 12
000
FTUS42 KTBW 291124
TAFRSW
TAF
KRSW 291124Z 2912/3012 VRB03KT P6SM FEW040
     FM291700 22005KT P6SM VCTS BKN040CB
     FM300100 01007KT P6SM SCT060 BKN090
     FM300400 06006KT P6SM SCT050 BKN070=

USA.gov is the U.S. government's official web portal to all federal, state and local government web resources and services.